N303JN TJIG-MDPC
Flight info
| Callsign | N303JN |
|---|---|
| Flight time | N/A |
| Altitude | 4500 |
| Route | VFR |
| Aircraft | K100/L-VOL/L |
Departure
| Time | 2026-04-19 14:15 |
|---|---|
| Airport | Fernando Luis Ribas Dominicci Airport (TJIG) |
Arrival
| Time | N/A |
|---|---|
| Airport | Punta Cana International Airport (MDPC) |
| Time | Latitude | Longitude | Altitude | Speed | Heading |
|---|---|---|---|---|---|
| 2026-04-19 14:10 | 18.45557 | -66.10224 | 15 ft | 0 kts | 85° |
| 2026-04-19 14:13 | 18.45557 | -66.10222 | 15 ft | 2 kts | 84° |
| 2026-04-19 14:13 | 18.45575 | -66.10218 | 15 ft | 10 kts | 262° |
| 2026-04-19 14:13 | 18.45568 | -66.10337 | 14 ft | 19 kts | 264° |
| 2026-04-19 14:13 | 18.45550 | -66.10466 | 14 ft | 19 kts | 261° |
| 2026-04-19 14:14 | 18.45546 | -66.10497 | 14 ft | 8 kts | 263° |
| 2026-04-19 14:14 | 18.45552 | -66.10554 | 14 ft | 0 kts | 320° |
| 2026-04-19 14:14 | 18.45563 | -66.10559 | 14 ft | 8 kts | 345° |
| 2026-04-19 14:14 | 18.45599 | -66.10515 | 13 ft | 14 kts | 81° |
| 2026-04-19 14:15 | 18.45644 | -66.10123 | 15 ft | 93 kts | 85° |
| 2026-04-19 14:15 | 18.45733 | -66.09342 | 359 ft | 118 kts | 87° |
| 2026-04-19 14:15 | 18.45768 | -66.08390 | 619 ft | 132 kts | 92° |
| 2026-04-19 14:15 | 18.45667 | -66.07480 | 1129 ft | 126 kts | 116° |
| 2026-04-19 14:16 | 18.44918 | -66.07640 | 1658 ft | 155 kts | 251° |
| 2026-04-19 14:16 | 18.45134 | -66.08715 | 2192 ft | 157 kts | 304° |
| 2026-04-19 14:16 | 18.45637 | -66.09878 | 2160 ft | 184 kts | 285° |
| 2026-04-19 14:16 | 18.45757 | -66.11209 | 2257 ft | 185 kts | 281° |
| 2026-04-19 14:17 | 18.46055 | -66.12469 | 2500 ft | 174 kts | 293° |
| 2026-04-19 14:17 | 18.46510 | -66.13760 | 2271 ft | 185 kts | 292° |
| 2026-04-19 14:17 | 18.46661 | -66.15010 | 2563 ft | 176 kts | 276° |
| 2026-04-19 14:17 | 18.46885 | -66.16369 | 2199 ft | 195 kts | 284° |
| 2026-04-19 14:18 | 18.47194 | -66.17737 | 2237 ft | 185 kts | 285° |
| 2026-04-19 14:18 | 18.47399 | -66.18978 | 2672 ft | 167 kts | 279° |
| 2026-04-19 14:18 | 18.47647 | -66.20260 | 2528 ft | 182 kts | 291° |
| 2026-04-19 14:18 | 18.48130 | -66.21475 | 2679 ft | 176 kts | 296° |
| 2026-04-19 14:19 | 18.48449 | -66.22670 | 2977 ft | 173 kts | 284° |
| 2026-04-19 14:19 | 18.48591 | -66.23984 | 2967 ft | 183 kts | 271° |
| 2026-04-19 14:19 | 18.48589 | -66.25283 | 3280 ft | 170 kts | 272° |
| 2026-04-19 14:19 | 18.48662 | -66.26623 | 3015 ft | 192 kts | 279° |
| 2026-04-19 14:20 | 18.48963 | -66.27987 | 2797 ft | 195 kts | 285° |
| 2026-04-19 14:20 | 18.49218 | -66.29390 | 2620 ft | 195 kts | 280° |
| 2026-04-19 14:20 | 18.49380 | -66.30784 | 2631 ft | 187 kts | 281° |
| 2026-04-19 14:20 | 18.49648 | -66.32092 | 2918 ft | 180 kts | 289° |
| 2026-04-19 14:21 | 18.50151 | -66.33261 | 3341 ft | 168 kts | 305° |
| 2026-04-19 14:21 | 18.50795 | -66.34348 | 3330 ft | 182 kts | 314° |
| 2026-04-19 14:21 | 18.51953 | -66.34525 | 2678 ft | 188 kts | 32° |
| 2026-04-19 14:21 | 18.52782 | -66.33638 | 2361 ft | 167 kts | 64° |
| 2026-04-19 14:22 | 18.53044 | -66.32712 | 2221 ft | 155 kts | 84° |
| 2026-04-19 14:22 | 18.45557 | -66.10224 | 15 ft | 0 kts | 81° |